Time;durP1;ratioP1;P1;durP2;ratioP2;P2;SDS_P1;SDS_P2;PMS_P1;PMS_P2;Temp;Humidity;BMP_temperature;BMP_pressure;BME280_temperature;BME280_humidity;BME280_pressure;Samples;Min_cycle;Max_cycle;Signal;HPM_P1;HPM_P2
2024/04/15 00:01:16;;;;;;;8.10;4.00;;;13.10;99.90;;;13.91;73.36;96572.00;2362308;56;26112;-75
2024/04/15 00:03:42;;;;;;;5.80;3.83;;;13.10;99.90;;;13.93;73.65;96568.00;2361913;56;26654;-75
2024/04/15 00:06:09;;;;;;;8.10;4.10;;;13.10;99.90;;;13.92;73.29;96563.00;2362410;56;26125;-74
2024/04/15 00:08:35;;;;;;;7.47;3.60;;;13.10;99.90;;;13.82;74.08;96546.00;2361946;56;26161;-74
2024/04/15 00:11:05;;;;;;;6.23;3.70;;;13.20;99.90;;;13.87;74.50;96550.00;2362852;56;26152;-76
2024/04/15 00:13:31;;;;;;;8.40;4.50;;;13.20;99.90;;;13.89;73.71;96555.00;2361362;56;26108;-76
2024/04/15 00:15:58;;;;;;;6.70;3.70;;;13.10;99.90;;;13.85;73.89;96551.00;2362494;56;26215;-76
2024/04/15 00:18:25;;;;;;;9.57;3.97;;;13.20;99.90;;;13.95;74.00;96533.00;2362244;56;26755;-78
2024/04/15 00:21:04;;;;;;;6.53;3.93;;;13.20;99.90;;;14.01;73.79;96538.00;2362113;56;26141;-75
2024/04/15 00:23:31;;;;;;;6.37;3.57;;;13.20;99.90;;;13.94;74.06;96529.00;2362006;56;26097;-76
2024/04/15 00:25:58;;;;;;;8.60;3.50;;;13.10;99.90;;;13.92;74.06;96523.00;2362779;56;26173;-77
2024/04/15 00:28:25;;;;;;;8.52;3.97;;;13.10;99.90;;;13.86;73.81;96527.00;2362074;56;26193;-76
2024/04/15 00:30:52;;;;;;;9.83;3.70;;;12.90;99.90;;;13.66;74.04;96520.00;2362251;56;26685;-74
2024/04/15 00:33:22;;;;;;;7.93;4.30;;;13.00;99.90;;;13.74;74.60;96522.00;2362622;56;26168;-75
2024/04/15 00:35:48;;;;;;;7.03;3.70;;;13.10;99.90;;;13.81;74.51;96517.00;2362511;56;26191;-76
2024/04/15 00:38:16;;;;;;;7.47;4.07;;;13.00;99.90;;;13.80;74.81;96518.00;2362815;56;26133;-77
2024/04/15 00:40:43;;;;;;;6.80;3.83;;;13.10;99.90;;;13.88;74.65;96517.00;2362178;56;26735;-76
2024/04/15 00:43:10;;;;;;;8.07;3.90;;;13.00;99.90;;;13.85;74.41;96510.00;2362696;56;26105;-76
2024/04/15 00:45:37;;;;;;;6.77;3.57;;;12.90;99.90;;;13.84;73.60;96503.00;2360995;56;26149;-77
2024/04/15 00:48:17;;;;;;;9.03;4.67;;;12.90;99.90;;;13.69;74.04;96503.00;2362388;56;26610;-77
2024/04/15 00:50:50;;;;;;;7.40;3.87;;;12.90;99.90;;;13.69;73.96;96506.00;2362829;56;26515;-74
2024/04/15 00:53:21;;;;;;;5.60;3.60;;;12.80;99.90;;;13.51;75.11;96501.00;2361956;56;26188;-76
2024/04/15 00:55:53;;;;;;;5.60;3.47;;;12.80;99.90;;;13.53;75.18;96500.00;2361474;56;26684;-77
2024/04/15 00:58:24;;;;;;;7.07;4.20;;;12.90;99.90;;;13.66;74.51;96493.00;2361440;56;26173;-77
2024/04/15 01:00:53;;;;;;;5.23;3.33;;;12.70;99.90;;;13.43;74.42;96483.00;2362467;56;26546;-75
2024/04/15 01:03:22;;;;;;;5.97;3.50;;;12.70;99.90;;;13.34;75.43;96482.00;2362137;56;26066;-75
2024/04/15 01:05:49;;;;;;;6.87;3.93;;;12.70;99.90;;;13.49;74.65;96488.00;2362055;56;26199;-74
2024/04/15 01:08:17;;;;;;;9.60;3.63;;;12.60;99.90;;;13.36;75.09;96475.00;2361940;56;26116;-76
2024/04/15 01:10:45;;;;;;;6.77;3.73;;;12.80;99.90;;;13.62;75.92;96473.00;2362431;56;26156;-74
2024/04/15 01:13:26;;;;;;;6.17;3.70;;;12.90;99.90;;;13.69;74.94;96473.00;2361779;56;27196;-76
2024/04/15 01:15:59;;;;;;;12.20;4.07;;;12.90;99.90;;;13.64;74.83;96473.00;2361821;56;26534;-77
2024/04/15 01:18:27;;;;;;;6.83;3.80;;;12.90;99.90;;;13.54;76.00;96469.00;2362449;56;26446;-75
2024/04/15 01:20:59;;;;;;;8.30;3.83;;;12.90;99.90;;;13.62;75.78;96464.00;2362606;56;26493;-76
2024/04/15 01:23:33;;;;;;;6.50;3.93;;;12.90;99.90;;;13.60;76.51;96460.00;2361621;56;26117;-76
2024/04/15 01:26:00;;;;;;;10.20;4.50;;;12.90;99.90;;;13.64;75.51;96462.00;2362498;56;27181;-76
2024/04/15 01:28:27;;;;;;;7.10;3.73;;;12.90;99.90;;;13.58;76.09;96444.00;2361676;56;26189;-77
2024/04/15 01:30:53;;;;;;;7.57;4.07;;;12.90;99.90;;;13.58;76.14;96454.00;2362031;56;27917;-74
2024/04/15 01:33:20;;;;;;;6.90;3.90;;;12.90;99.90;;;13.65;76.06;96453.00;2361824;56;26661;-75
2024/04/15 01:35:47;;;;;;;6.40;3.87;;;12.90;99.90;;;13.53;75.50;96441.00;2361643;56;26751;-76
2024/04/15 01:38:13;;;;;;;8.70;4.10;;;12.80;99.90;;;13.59;75.42;96434.00;2362099;56;26153;-76
2024/04/15 01:40:40;;;;;;;7.90;4.00;;;12.80;99.90;;;13.58;75.85;96438.00;2361816;56;26152;-74
2024/04/15 01:43:06;;;;;;;8.10;4.00;;;12.80;99.90;;;13.57;75.29;96436.00;2362751;56;26152;-74
2024/04/15 01:45:33;;;;;;;7.47;4.13;;;12.80;99.90;;;13.56;75.20;96438.00;2361094;56;26152;-76
2024/04/15 01:48:00;;;;;;;8.63;3.80;;;12.90;99.90;;;13.58;75.54;96433.00;2362537;56;26201;-74
2024/04/15 01:50:26;;;;;;;6.73;3.50;;;12.70;99.90;;;13.57;75.16;96430.00;2362337;56;26189;-77
2024/04/15 01:52:53;;;;;;;12.30;4.03;;;12.70;99.90;;;13.38;76.24;96421.00;2361674;56;26681;-76
2024/04/15 01:55:19;;;;;;;7.23;4.00;;;12.70;99.90;;;13.47;76.27;96421.00;2361839;56;26554;-79
2024/04/15 01:57:46;;;;;;;8.07;4.07;;;12.80;99.90;;;13.63;75.85;96424.00;2360855;56;27244;-77
2024/04/15 02:00:13;;;;;;;8.80;3.90;;;12.80;99.90;;;13.56;75.67;96421.00;2361999;56;26197;-77
2024/04/15 02:02:39;;;;;;;7.13;4.30;;;12.80;99.90;;;13.56;75.96;96419.00;2361624;56;26189;-78
2024/04/15 02:05:07;;;;;;;7.03;3.87;;;12.80;99.90;;;13.66;75.61;96410.00;2362482;56;26200;-79
2024/04/15 02:07:37;;;;;;;11.47;4.20;;;12.90;99.90;;;13.58;76.04;96414.00;2361821;56;26718;-75
2024/04/15 02:10:04;;;;;;;8.97;3.87;;;12.80;99.90;;;13.57;75.99;96412.00;2361662;56;27330;-78
2024/04/15 02:12:32;;;;;;;10.60;4.13;;;12.90;99.90;;;13.67;75.42;96408.00;2361071;56;26168;-76
2024/04/15 02:14:59;;;;;;;5.73;3.87;;;12.80;99.90;;;13.59;75.53;96401.00;2361870;56;26197;-77
2024/04/15 02:17:25;;;;;;;9.07;3.93;;;12.80;99.90;;;13.50;75.61;96393.00;2361544;56;26124;-77
2024/04/15 02:19:52;;;;;;;6.87;3.77;;;12.80;99.90;;;13.45;76.08;96401.00;2361732;56;26148;-79
2024/04/15 02:22:18;;;;;;;7.37;3.97;;;12.70;99.90;;;13.48;75.61;96400.00;2362249;56;26112;-77
2024/04/15 02:24:45;;;;;;;9.10;4.03;;;12.50;99.90;;;13.36;76.00;96387.00;2361849;56;26113;-76
2024/04/15 02:27:12;;;;;;;7.77;3.80;;;12.60;99.90;;;13.35;76.60;96390.00;2362398;56;26212;-77
2024/04/15 02:29:38;;;;;;;8.47;4.10;;;12.60;99.90;;;13.39;76.77;96391.00;2361635;56;26208;-76
2024/04/15 02:32:05;;;;;;;10.90;3.83;;;12.60;99.90;;;13.41;76.63;96389.00;2362333;56;26186;-78
2024/04/15 02:34:32;;;;;;;7.10;3.70;;;12.60;99.90;;;13.43;76.36;96384.00;2361253;56;26574;-78
2024/04/15 02:36:58;;;;;;;7.60;3.70;;;12.50;99.90;;;13.32;76.67;96377.00;2361032;56;26553;-75
2024/04/15 02:39:25;;;;;;;16.30;4.53;;;12.60;99.90;;;13.41;75.64;96373.00;2359496;56;26228;-76
2024/04/15 02:41:52;;;;;;;7.77;3.93;;;12.50;99.90;;;13.34;76.04;96363.00;2359677;56;26173;-78
2024/04/15 02:44:18;;;;;;;10.10;4.40;;;12.60;99.90;;;13.45;75.86;96351.00;2360596;56;26712;-77
2024/04/15 02:46:45;;;;;;;6.97;3.90;;;12.60;99.90;;;13.41;75.72;96362.00;2359759;56;26153;-77
2024/04/15 02:49:12;;;;;;;10.30;3.90;;;12.60;99.90;;;13.38;75.54;96355.00;2360591;56;26180;-76
2024/04/15 02:51:39;;;;;;;6.03;3.57;;;12.50;99.90;;;13.44;75.25;96365.00;2360317;56;26121;-77
2024/04/15 02:54:06;;;;;;;9.87;4.40;;;12.50;99.90;;;13.28;75.91;96358.00;2359482;56;26169;-78
2024/04/15 02:56:33;;;;;;;8.37;3.87;;;12.50;99.90;;;13.26;76.30;96349.00;2359126;56;27198;-76
2024/04/15 02:58:59;;;;;;;11.40;4.23;;;12.50;99.90;;;13.12;76.75;96349.00;2359638;56;26200;-76
2024/04/15 03:01:26;;;;;;;7.47;3.67;;;12.50;99.90;;;13.20;76.14;96342.00;2359326;56;26172;-79
2024/04/15 03:03:52;;;;;;;7.27;3.93;;;12.40;99.90;;;13.21;76.31;96323.00;2359646;56;26161;-78
2024/04/15 03:06:20;;;;;;;7.50;3.80;;;12.40;99.90;;;13.29;76.24;96322.00;2359515;56;26208;-79
2024/04/15 03:08:47;;;;;;;11.37;4.20;;;12.50;99.90;;;13.28;76.40;96312.00;2361010;56;26716;-77
2024/04/15 03:11:14;;;;;;;9.77;4.27;;;12.50;99.90;;;13.30;75.86;96310.00;2360506;56;26132;-78
2024/04/15 03:13:40;;;;;;;8.93;4.60;;;12.40;99.90;;;13.18;76.51;96310.00;2359629;56;26219;-78
2024/04/15 03:16:07;;;;;;;7.70;4.40;;;12.40;99.90;;;13.14;76.53;96312.00;2359585;56;26117;-78
2024/04/15 03:18:48;;;;;;;5.93;3.57;;;12.30;99.90;;;13.04;76.19;96309.00;2359587;56;26227;-79
2024/04/15 03:21:15;;;;;;;9.00;3.83;;;12.20;99.90;;;13.00;76.50;96308.00;2359675;56;26177;-77
2024/04/15 03:23:42;;;;;;;8.37;3.90;;;12.20;99.90;;;12.95;76.85;96306.00;2359553;56;26140;-78
2024/04/15 03:26:08;;;;;;;9.77;4.40;;;12.20;99.90;;;13.03;77.12;96308.00;2360042;56;26149;-78
2024/04/15 03:28:35;;;;;;;9.23;4.17;;;12.30;99.90;;;13.06;77.59;96304.00;2359526;56;26738;-77
2024/04/15 03:31:01;;;;;;;15.23;4.40;;;12.40;99.90;;;13.17;78.14;96295.00;2359264;56;26128;-78
2024/04/15 03:33:28;;;;;;;8.60;3.97;;;12.50;99.90;;;13.37;77.02;96297.00;2359388;56;26188;-77
2024/04/15 03:35:55;;;;;;;9.13;4.40;;;12.50;99.90;;;13.32;76.62;96295.00;2359605;56;26229;-76
2024/04/15 03:38:21;;;;;;;8.50;4.10;;;12.40;99.90;;;13.13;76.82;96286.00;2363012;56;26153;-76
2024/04/15 03:40:48;;;;;;;8.23;3.67;;;12.30;99.90;;;13.05;76.61;96285.00;2362816;56;26113;-77
2024/04/15 03:43:14;;;;;;;7.83;4.20;;;12.20;99.90;;;12.96;76.73;96279.00;2361952;56;26053;-78
2024/04/15 03:45:42;;;;;;;8.67;4.10;;;12.20;99.90;;;13.06;77.67;96278.00;2362505;56;26694;-76
2024/04/15 03:48:08;;;;;;;6.90;3.57;;;12.40;99.90;;;13.18;77.22;96272.00;2362234;56;26863;-77
2024/04/15 03:50:35;;;;;;;6.00;3.23;;;12.30;99.90;;;13.10;77.35;96265.00;2362588;56;26686;-78
2024/04/15 03:53:02;;;;;;;7.67;3.83;;;12.30;99.90;;;12.99;77.78;96256.00;2362637;56;26136;-79
2024/04/15 03:55:28;;;;;;;6.63;4.57;;;12.20;99.90;;;13.11;77.47;96261.00;2362570;56;26887;-76
2024/04/15 03:57:55;;;;;;;8.80;4.43;;;12.20;99.90;;;13.06;77.62;96259.00;2362726;56;26594;-77
2024/04/15 04:00:21;;;;;;;12.83;4.17;;;12.20;99.90;;;12.94;78.39;96250.00;2362550;56;26049;-78
2024/04/15 04:02:48;;;;;;;8.73;4.30;;;12.20;99.90;;;12.88;78.96;96243.00;2361493;56;26654;-77
2024/04/15 04:05:19;;;;;;;9.23;4.20;;;12.30;99.90;;;12.96;78.18;96244.00;2359018;56;26243;-77
2024/04/15 04:07:45;;;;;;;9.30;4.30;;;12.20;99.90;;;12.89;77.35;96242.00;2359118;56;26113;-76
2024/04/15 04:10:14;;;;;;;9.17;4.30;;;12.10;99.90;;;12.85;77.56;96242.00;2359135;56;26180;-76
2024/04/15 04:12:41;;;;;;;9.80;4.53;;;12.10;99.90;;;12.82;77.38;96243.00;2357070;56;26140;-76
2024/04/15 04:15:07;;;;;;;10.50;4.37;;;12.20;99.90;;;12.93;77.51;96235.00;2356199;56;27338;-77
2024/04/15 04:17:34;;;;;;;9.03;4.10;;;12.20;99.90;;;12.90;78.50;96238.00;2356994;56;26231;-79
2024/04/15 04:20:00;;;;;;;10.47;4.67;;;12.30;99.90;;;12.93;78.59;96233.00;2356768;56;26117;-76
2024/04/15 04:22:27;;;;;;;8.20;4.57;;;12.40;99.90;;;13.06;78.37;96233.00;2357048;56;26141;-77
2024/04/15 04:24:54;;;;;;;9.20;4.67;;;12.50;99.90;;;13.20;77.25;96233.00;2357178;56;26282;-77
2024/04/15 04:27:20;;;;;;;8.70;4.20;;;12.60;99.90;;;13.17;77.16;96225.00;2356482;56;26234;-79
2024/04/15 04:29:47;;;;;;;12.77;4.97;;;12.60;99.90;;;13.30;76.69;96214.00;2357304;56;26113;-77
2024/04/15 04:32:16;;;;;;;7.70;4.27;;;12.70;99.90;;;13.45;76.23;96218.00;2356948;56;26435;-77
2024/04/15 04:34:43;;;;;;;15.30;5.60;;;12.80;99.90;;;13.60;76.01;96210.00;2356068;56;26292;-78
2024/04/15 04:37:09;;;;;;;10.13;4.70;;;13.00;99.90;;;13.80;75.84;96210.00;2356731;56;26455;-79
2024/04/15 04:39:36;;;;;;;8.53;4.00;;;13.20;99.90;;;13.98;75.38;96207.00;2356318;56;26133;-77
2024/04/15 04:42:03;;;;;;;7.47;4.20;;;13.10;99.90;;;13.93;72.78;96220.00;2356346;56;26196;-77
2024/04/15 04:44:29;;;;;;;9.77;4.03;;;12.90;99.90;;;13.67;72.90;96215.00;2355775;56;26141;-77
2024/04/15 04:46:56;;;;;;;7.83;4.27;;;12.80;99.90;;;13.54;74.42;96219.00;2355536;56;26643;-76
2024/04/15 04:49:22;;;;;;;10.17;4.53;;;12.90;99.90;;;13.77;75.10;96210.00;2354979;56;26267;-79
2024/04/15 04:51:49;;;;;;;7.10;3.80;;;13.10;99.90;;;13.92;75.00;96196.00;2355699;56;26188;-77
2024/04/15 04:54:16;;;;;;;7.10;4.00;;;13.20;99.90;;;14.02;74.42;96197.00;2355582;56;26328;-77
2024/04/15 04:56:44;;;;;;;6.43;4.10;;;13.20;99.90;;;14.11;73.49;96194.00;2356204;56;26608;-79
2024/04/15 04:59:10;;;;;;;8.73;4.60;;;13.10;99.90;;;13.94;73.35;96189.00;2355565;56;26472;-78
2024/04/15 05:01:37;;;;;;;9.77;5.03;;;12.90;99.90;;;13.80;74.95;96194.00;2355737;56;26171;-78
2024/04/15 05:04:05;;;;;;;8.90;4.23;;;13.10;99.90;;;14.01;75.09;96181.00;2354952;56;26521;-79
2024/04/15 05:06:31;;;;;;;11.10;4.13;;;13.40;99.90;;;14.23;74.64;96176.00;2355913;56;26462;-79
2024/04/15 05:08:58;;;;;;;10.40;4.30;;;13.30;99.90;;;14.14;74.51;96176.00;2355522;56;26152;-78
2024/04/15 05:11:28;;;;;;;16.40;4.90;;;13.40;99.90;;;14.32;74.22;96171.00;2355770;56;26296;-79
2024/04/15 05:13:55;;;;;;;8.30;4.23;;;13.60;99.90;;;14.46;74.28;96166.00;2355604;56;26160;-78
2024/04/15 05:16:22;;;;;;;14.47;4.50;;;13.60;99.90;;;14.50;74.36;96165.00;2354921;56;26690;-77
2024/04/15 05:18:48;;;;;;;9.13;4.90;;;13.60;99.90;;;14.46;74.37;96166.00;2355175;56;26504;-76
2024/04/15 05:21:19;;;;;;;7.63;4.77;;;13.70;99.90;;;14.53;74.02;96161.00;2355286;56;27461;-76
2024/04/15 05:23:47;;;;;;;10.33;4.80;;;13.70;99.90;;;14.57;73.95;96159.00;2355806;56;26270;-77
2024/04/15 05:26:14;;;;;;;7.87;4.13;;;13.70;99.90;;;14.68;73.57;96164.00;2357960;56;26137;-77
2024/04/15 05:28:41;;;;;;;8.83;4.43;;;13.80;99.90;;;14.78;74.02;96163.00;2358785;56;26065;-79
2024/04/15 05:31:07;;;;;;;7.53;4.50;;;14.00;99.90;;;14.94;73.36;96162.00;2358101;56;26081;-79
2024/04/15 05:33:34;;;;;;;9.60;4.97;;;14.10;99.90;;;15.10;72.55;96158.00;2358199;56;26208;-80
2024/04/15 05:36:01;;;;;;;8.00;4.10;;;14.20;99.90;;;15.14;72.92;96155.00;2357537;56;26239;-77
2024/04/15 05:38:29;;;;;;;7.28;4.28;;;14.30;99.90;;;15.33;72.28;96151.00;2357218;56;26137;-80
2024/04/15 05:40:55;;;;;;;12.47;4.80;;;14.40;99.90;;;15.26;72.81;96147.00;2356939;56;26129;-80
2024/04/15 05:43:22;;;;;;;10.32;4.68;;;14.50;99.90;;;15.49;72.37;96151.00;2357399;56;26086;-80
2024/04/15 05:45:49;;;;;;;11.82;5.65;;;14.60;99.90;;;15.65;71.94;96145.00;2356820;56;26259;-77
2024/04/15 05:48:17;;;;;;;16.47;4.60;;;14.70;99.90;;;15.63;71.79;96144.00;2357751;56;26164;-80
2024/04/15 05:50:45;;;;;;;10.63;5.00;;;14.90;99.90;;;15.94;70.53;96140.00;2356708;56;26934;-79
2024/04/15 05:53:11;;;;;;;7.65;4.50;;;15.00;99.90;;;15.99;70.97;96144.00;2357245;56;26220;-77
2024/04/15 05:55:40;;;;;;;6.75;4.40;;;15.10;99.90;;;16.04;70.78;96144.00;2358131;56;26077;-79
2024/04/15 05:58:07;;;;;;;12.35;4.57;;;15.10;99.90;;;16.11;69.44;96137.00;2357950;56;26112;-77
2024/04/15 06:00:35;;;;;;;11.77;5.10;;;15.20;99.90;;;16.21;69.57;96129.00;2357208;56;26073;-77
2024/04/15 06:03:02;;;;;;;11.07;4.57;;;15.50;99.90;;;16.47;68.47;96134.00;2357587;56;26144;-77
2024/04/15 06:05:29;;;;;;;10.88;5.12;;;15.70;99.90;;;16.78;68.92;96124.00;2357318;56;26550;-78
2024/04/15 06:07:55;;;;;;;10.85;4.87;;;15.90;99.90;;;17.07;67.40;96126.00;2357725;56;26136;-79
2024/04/15 06:10:22;;;;;;;12.43;4.68;;;16.20;99.90;;;17.25;66.43;96117.00;2357370;56;26541;-77
2024/04/15 06:12:48;;;;;;;7.65;5.20;;;16.40;99.90;;;17.51;65.68;96110.00;2357193;56;26485;-79
2024/04/15 06:15:15;;;;;;;12.50;5.73;;;16.40;99.90;;;17.45;66.34;96111.00;2357138;56;26196;-80
2024/04/15 06:17:42;;;;;;;12.05;5.53;;;16.40;99.90;;;17.57;65.28;96108.00;2356997;56;26137;-77
2024/04/15 06:20:09;;;;;;;14.82;4.95;;;16.60;99.90;;;17.63;65.14;96110.00;2357137;56;26892;-80
2024/04/15 06:22:36;;;;;;;12.63;5.60;;;16.60;99.90;;;17.70;66.87;96101.00;2357469;56;26109;-80
2024/04/15 06:25:04;;;;;;;8.32;4.80;;;16.60;99.90;;;17.74;66.57;96104.00;2357515;56;26630;-79
2024/04/15 06:27:31;;;;;;;10.05;5.40;;;16.60;99.90;;;17.81;66.26;96103.00;2357778;56;26144;-77
2024/04/15 06:29:58;;;;;;;9.60;5.28;;;16.80;99.90;;;18.05;65.01;96099.00;2357671;56;26140;-77
2024/04/15 06:32:25;;;;;;;15.35;5.53;;;17.00;99.90;;;18.40;63.95;96090.00;2356858;56;27251;-77
2024/04/15 06:34:52;;;;;;;8.07;4.95;;;17.10;99.90;;;18.19;63.68;96095.00;2357900;56;26116;-80
2024/04/15 06:37:18;;;;;;;13.65;5.75;;;17.10;99.90;;;18.30;64.98;96088.00;2356285;56;26372;-79
2024/04/15 06:39:45;;;;;;;9.77;5.07;;;17.30;99.90;;;18.40;65.58;96090.00;2357599;56;27015;-80
2024/04/15 06:42:11;;;;;;;9.23;5.25;;;17.30;99.90;;;18.40;65.90;96092.00;2357955;56;26686;-77
2024/04/15 06:44:38;;;;;;;11.93;5.25;;;17.30;99.90;;;18.56;64.56;96088.00;2357315;56;26546;-79
2024/04/15 06:47:05;;;;;;;13.52;5.32;;;17.50;99.90;;;18.73;63.46;96080.00;2356462;56;26995;-81
2024/04/15 06:49:32;;;;;;;19.65;5.45;;;17.60;99.90;;;18.95;63.73;96085.00;2357204;56;26468;-79
2024/04/15 06:51:58;;;;;;;8.50;4.97;;;17.90;99.90;;;19.27;62.37;96089.00;2357327;56;26121;-80
2024/04/15 06:54:25;;;;;;;8.57;5.15;;;18.20;99.90;;;19.65;61.32;96086.00;2357076;56;26169;-77
2024/04/15 06:56:51;;;;;;;12.25;5.20;;;18.30;99.90;;;19.62;62.33;96085.00;2356427;56;26459;-79
2024/04/15 06:59:18;;;;;;;14.80;5.68;;;18.40;99.90;;;19.79;59.66;96085.00;2357786;56;26753;-80
2024/04/15 07:01:44;;;;;;;9.55;5.78;;;18.70;99.90;;;20.17;57.99;96081.00;2357938;56;26105;-79
2024/04/15 07:04:11;;;;;;;13.57;5.85;;;18.90;99.90;;;20.24;57.90;96084.00;2357380;56;26765;-80
2024/04/15 07:06:38;;;;;;;14.23;5.32;;;19.00;99.90;;;20.17;57.93;96081.00;2357295;56;26081;-78
2024/04/15 07:09:04;;;;;;;15.00;6.40;;;19.20;99.90;;;20.36;57.48;96082.00;2358129;56;26092;-80
2024/04/15 07:11:32;;;;;;;21.27;5.32;;;19.40;99.90;;;20.64;56.84;96074.00;2357247;56;26561;-79
2024/04/15 07:13:59;;;;;;;9.00;5.07;;;19.60;99.90;;;20.90;56.25;96082.00;2357405;56;26137;-80
2024/04/15 07:16:25;;;;;;;12.43;5.47;;;19.80;99.90;;;21.20;55.26;96075.00;2357527;56;26187;-79
2024/04/15 07:18:52;;;;;;;8.20;5.12;;;20.10;99.90;;;21.46;55.39;96077.00;2358086;56;26097;-77
2024/04/15 07:21:21;;;;;;;9.68;5.35;;;20.20;99.90;;;21.49;55.00;96078.00;2358423;56;26523;-77
2024/04/15 07:23:49;;;;;;;12.43;5.28;;;20.20;99.90;;;21.66;53.57;96071.00;2357377;56;26172;-79
2024/04/15 07:26:16;;;;;;;12.55;5.45;;;20.40;99.90;;;21.84;53.89;96082.00;2357654;56;26136;-78
2024/04/15 07:28:42;;;;;;;14.77;5.43;;;20.60;99.90;;;22.09;53.63;96070.00;2357803;56;26589;-80
2024/04/15 07:31:09;;;;;;;12.37;5.57;;;20.60;99.20;;;22.20;52.34;96069.00;2357269;56;27028;-79
2024/04/15 07:33:36;;;;;;;16.30;5.70;;;20.70;99.20;;;22.30;52.11;96069.00;2357138;56;26618;-77
2024/04/15 07:36:04;;;;;;;13.15;5.07;;;20.90;99.50;;;22.41;52.97;96066.00;2357775;56;26594;-80
2024/04/15 07:38:33;;;;;;;12.57;6.03;;;20.90;99.40;;;22.34;53.01;96058.00;2358702;56;26074;-79
2024/04/15 07:41:00;;;;;;;10.15;5.28;;;21.00;99.10;;;22.58;52.31;96067.00;2358016;56;26567;-79
2024/04/15 07:43:29;;;;;;;11.90;5.87;;;21.10;99.30;;;22.71;52.59;96062.00;2357796;56;26180;-77
2024/04/15 07:45:55;;;;;;;18.48;6.07;;;21.20;99.40;;;22.86;52.83;96061.00;2358915;56;26968;-79
2024/04/15 07:48:22;;;;;;;15.55;5.65;;;21.70;98.60;;;23.43;50.92;96066.00;2359368;56;26155;-81
2024/04/15 07:50:48;;;;;;;14.68;5.55;;;21.70;98.60;;;23.21;51.94;96064.00;2358030;56;26069;-79
2024/04/15 07:53:15;;;;;;;10.10;5.03;;;21.80;98.30;;;23.11;51.77;96068.00;2358557;56;26683;-81
2024/04/15 07:55:47;;;;;;;13.82;5.25;;;21.70;96.90;;;23.14;49.29;96071.00;2358216;56;26582;-83
2024/04/15 07:58:14;;;;;;;11.98;6.47;;;21.80;97.00;;;23.24;49.23;96064.00;2357070;56;26109;-78
2024/04/15 08:00:42;;;;;;;8.98;5.07;;;21.90;97.20;;;23.47;49.44;96058.00;2357290;56;26211;-76
2024/04/15 08:03:08;;;;;;;11.23;6.00;;;22.10;97.10;;;23.80;49.01;96056.00;2357794;56;26556;-77
2024/04/15 08:05:35;;;;;;;14.82;5.80;;;22.50;96.30;;;24.25;47.52;96058.00;2357838;56;26375;-78
2024/04/15 08:08:02;;;;;;;11.52;5.15;;;22.60;96.60;;;24.37;48.25;96054.00;2358165;56;26113;-78
2024/04/15 08:10:28;;;;;;;8.73;5.45;;;22.70;96.10;;;24.22;47.81;96050.00;2358246;56;26121;-80
2024/04/15 08:12:55;;;;;;;11.63;5.35;;;22.70;96.20;;;24.46;47.71;96047.00;2357693;56;26172;-80
2024/04/15 08:15:22;;;;;;;17.83;5.70;;;23.10;96.20;;;25.00;47.11;96042.00;2357439;56;26177;-75
2024/04/15 08:17:48;;;;;;;9.43;5.57;;;23.20;95.30;;;24.81;46.36;96047.00;2357812;56;26562;-78
2024/04/15 08:20:15;;;;;;;10.35;5.80;;;23.40;94.80;;;24.91;45.84;96035.00;2358210;56;26580;-79
2024/04/15 08:22:44;;;;;;;8.50;5.43;;;23.50;95.30;;;25.01;46.82;96040.00;2357881;56;26642;-80
2024/04/15 08:25:10;;;;;;;10.13;5.47;;;23.70;94.80;;;25.41;45.72;96043.00;2358046;56;26158;-77
2024/04/15 08:27:37;;;;;;;8.90;5.43;;;24.10;93.90;;;25.83;44.07;96039.00;2358590;56;26124;-77
2024/04/15 08:30:05;;;;;;;25.45;5.50;;;24.40;93.30;;;26.20;43.01;96038.00;2358440;56;26677;-75
2024/04/15 08:32:33;;;;;;;11.38;6.03;;;24.50;92.50;;;26.38;42.12;96033.00;2357801;56;26596;-79
2024/04/15 08:35:01;;;;;;;14.93;5.80;;;24.70;91.90;;;26.62;41.04;96037.00;2358218;56;26423;-78
2024/04/15 08:37:27;;;;;;;9.75;5.20;;;24.90;91.80;;;26.88;40.84;96031.00;2358377;56;27162;-77
2024/04/15 08:39:54;;;;;;;12.27;7.97;;;25.10;91.60;;;27.13;40.67;96032.00;2358006;56;26562;-81
2024/04/15 08:42:35;;;;;;;12.52;7.90;;;25.40;92.10;;;27.44;41.25;96020.00;2357894;56;26751;-83
2024/04/15 08:45:07;;;;;;;10.68;5.60;;;25.40;90.10;;;27.42;38.48;96019.00;2357520;56;26066;-79
2024/04/15 08:47:35;;;;;;;10.50;6.10;;;25.60;89.60;;;27.52;38.29;96018.00;2357507;56;26124;-79
2024/04/15 08:50:04;;;;;;;12.73;5.93;;;25.60;88.80;;;27.67;37.69;96021.00;2358348;56;26133;-78
2024/04/15 08:52:31;;;;;;;8.98;5.95;;;25.80;88.90;;;27.95;37.78;96022.00;2358065;56;27044;-77
2024/04/15 08:54:57;;;;;;;9.43;5.57;;;26.00;88.90;;;27.96;38.05;96016.00;2357425;56;27036;-80
2024/04/15 08:57:28;;;;;;;11.23;5.50;;;26.20;86.40;;;28.15;36.53;96018.00;2355371;56;26941;-79
2024/04/15 08:59:57;;;;;;;12.93;5.30;;;26.20;86.30;;;28.25;36.38;96006.00;2357697;56;26117;-80
2024/04/15 09:02:26;;;;;;;11.80;5.57;;;26.20;85.90;;;28.27;36.44;96018.00;2357729;56;26570;-78
2024/04/15 09:04:53;;;;;;;10.18;6.12;;;26.30;85.80;;;28.42;36.40;96013.00;2356975;56;26717;-77
2024/04/15 09:07:24;;;;;;;9.52;5.50;;;26.50;84.00;;;28.40;35.52;96011.00;2358314;56;26093;-81
2024/04/15 09:09:51;;;;;;;10.32;5.65;;;26.60;85.00;;;28.60;36.18;96009.00;2358013;56;26172;-78
2024/04/15 09:12:17;;;;;;;9.10;5.22;;;26.70;83.10;;;28.76;34.89;96006.00;2357275;56;26635;-79
2024/04/15 09:14:44;;;;;;;7.43;4.97;;;26.70;83.80;;;28.67;35.53;95998.00;2358243;56;26146;-81
2024/04/15 09:17:11;;;;;;;8.13;5.40;;;26.90;83.00;;;28.90;34.97;95990.00;2162805;56;10000192;-80
2024/04/15 09:19:44;;;;;;;11.88;5.75;;;27.10;83.20;;;29.15;34.93;96002.00;2304954;58;26261;-80
2024/04/15 09:22:11;;;;;;;8.30;5.25;;;27.10;80.60;;;29.24;33.62;96003.00;2304860;58;26151;-77
2024/04/15 09:24:38;;;;;;;7.85;5.12;;;27.30;79.30;;;29.42;32.86;96000.00;2302650;58;26199;-78
2024/04/15 09:27:06;;;;;;;6.68;4.82;;;27.30;79.00;;;29.09;33.14;95997.00;2304141;58;26108;-80
2024/04/15 09:29:32;;;;;;;6.28;4.65;;;27.10;78.70;;;29.15;32.92;95996.00;2305084;58;26244;-78
2024/04/15 09:31:59;;;;;;;11.88;5.18;;;27.10;79.40;;;29.16;33.49;95989.00;2305501;58;26183;-78
2024/04/15 09:34:26;;;;;;;8.30;5.12;;;26.90;79.80;;;28.96;33.86;95979.00;2304532;58;26127;-80
2024/04/15 09:36:55;;;;;;;10.95;5.37;;;26.80;78.50;;;28.79;33.23;95978.00;2305272;58;27159;-79
2024/04/15 09:39:23;;;;;;;18.17;5.45;;;26.80;79.30;;;28.82;33.80;95975.00;2305304;58;26092;-79
2024/04/15 09:41:54;;;;;;;6.90;4.68;;;26.70;79.90;;;28.71;34.30;95970.00;2303773;58;26589;-78
2024/04/15 09:44:23;;;;;;;9.70;4.87;;;26.80;78.80;;;28.87;33.51;95968.00;2303981;58;26271;-78
2024/04/15 09:46:51;;;;;;;9.68;5.18;;;26.90;79.50;;;28.96;34.04;95963.00;2303711;58;26119;-78
2024/04/15 09:49:20;;;;;;;8.50;5.03;;;27.10;77.80;;;29.04;33.00;95957.00;2303845;58;26724;-78
2024/04/15 09:51:53;;;;;;;13.95;5.00;;;26.80;77.80;;;28.72;33.34;95956.00;2305004;58;26184;-79
2024/04/15 09:54:30;;;;;;;9.50;5.05;;;26.70;79.80;;;28.60;34.76;95952.00;2304393;58;26135;-79
2024/04/15 09:57:13;;;;;;;6.40;4.28;;;26.80;77.90;;;28.73;33.47;95953.00;2354651;56;26136;-78
2024/04/15 09:59:45;;;;;;;8.23;5.10;;;26.80;76.80;;;28.84;32.73;95956.00;2356831;56;26948;-78
2024/04/15 10:03:07;;;;;;;8.25;5.32;;;26.80;77.60;;;28.83;33.27;95954.00;2356528;56;26443;-80
2024/04/15 10:05:41;;;;;;;8.00;5.18;;;26.90;81.00;;;28.65;35.73;95951.00;2357078;56;26163;-79
2024/04/15 10:08:08;;;;;;;8.23;4.85;;;26.60;81.40;;;28.38;36.10;95953.00;2357251;56;26069;-78
2024/04/15 10:10:36;;;;;;;8.05;5.35;;;26.40;81.10;;;28.35;35.89;95951.00;2356220;56;26594;-78
2024/04/15 10:13:07;;;;;;;9.02;5.12;;;26.40;81.70;;;28.20;36.52;95943.00;2355851;56;26081;-79
2024/04/15 10:15:34;;;;;;;8.25;5.65;;;26.50;81.70;;;28.47;36.21;95940.00;2355449;56;26502;-79
2024/04/15 10:18:13;;;;;;;7.93;5.15;;;26.60;80.20;;;28.59;35.11;95936.00;2357580;56;26429;-77
2024/04/15 10:20:48;;;;;;;10.20;5.10;;;26.70;81.50;;;28.53;36.21;95938.00;2357884;56;26085;-78